Humidity-temperature Sensor

Selected Measurement Type: Air Temperature

 
Air Temperature [°C]     6 entries per hour
Showing data from 9/3/2019 (00:00:00 Z) to 8/27/2019 (00:01:00 Z)
Previous Next [ Day | 3-Days | 7-Days ]
First Last
Prev [ Day | 3-Days | 7-Days ] Next
First Last

Start Time:     :
End Time:     :     
Time (in GMT) :00 :50 :40 :30 :20 :10
Previous Next [ Day | 3-Days | 7-Days ]
First Last
Prev [ Day | 3-Days | 7-Days ] Next
First Last


123 => good data
MM => data is determined as missing
-- => data not received/configured
Back to Top Back to Top
9/3/2019 00:00 to 23:10 26.62 26.58 26.63 26.64 26.38 26.53
9/2/2019 23:00 to 22:10 26.67 26.64 26.48 26.81 26.74 26.68
9/2/2019 22:00 to 21:10 26.76 26.60 26.62 26.75 26.82 26.42
9/2/2019 21:00 to 20:10 26.42 26.48 26.46 26.37 26.44 26.83
9/2/2019 20:00 to 19:10 26.80 26.79 26.89 26.81 26.92 26.83
9/2/2019 19:00 to 18:10 26.80 26.85 26.75 26.83 26.77 26.76
9/2/2019 18:00 to 17:10 26.81 26.78 26.87 26.86 26.80 26.81
9/2/2019 17:00 to 16:10 26.81 26.81 26.66 26.69 26.74 26.72
9/2/2019 16:00 to 15:10 26.76 26.77 26.65 26.85 26.73 26.72
9/2/2019 15:00 to 14:10 26.67 26.63 26.86 26.76 26.74 26.65
9/2/2019 14:00 to 13:10 26.67 26.62 26.62 26.66 26.64 26.57
9/2/2019 13:00 to 12:10 26.56 26.53 26.53 26.49 26.45 26.51
9/2/2019 12:00 to 11:10 26.40 26.37 26.34 26.41 26.32 26.29
9/2/2019 11:00 to 10:10 26.30 26.38 26.27 26.25 26.20 26.19
9/2/2019 10:00 to 9:10 26.28 26.28 26.29 26.25 26.19 26.18
9/2/2019 09:00 to 8:10 26.09 26.15 26.03 26.03 26.15 26.05
9/2/2019 08:00 to 7:10 26.00 26.02 26.03 25.97 26.04 26.15
9/2/2019 07:00 to 6:10 25.97 25.99 26.05 25.99 26.13 26.05
9/2/2019 06:00 to 5:10 26.07 26.05 26.07 26.00 26.00 25.97
9/2/2019 05:00 to 4:10 26.01 25.94 25.90 25.91 25.88 25.88
9/2/2019 04:00 to 3:10 25.99 25.93 25.84 25.76 25.84 25.89
9/2/2019 03:00 to 2:10 25.89 25.86 26.01 25.90 25.79 25.84
9/2/2019 02:00 to 1:10 25.46 25.40 25.37 25.63 25.76 25.72
9/2/2019 01:00 to 0:10 25.62 25.47 25.32 25.22 25.25 25.21
9/2/2019 00:00 to 23:10 25.29 25.06 25.22 25.06 25.03 25.20
9/1/2019 23:00 to 22:10 25.29 25.36 25.51 25.97 26.03 26.02
9/1/2019 22:00 to 21:10 25.98 26.05 26.02 26.20 26.26 26.28
9/1/2019 21:00 to 20:10 26.29 26.30 26.26 26.20 26.25 26.21
9/1/2019 20:00 to 19:10 26.20 26.20 26.18 26.20 26.21 26.31
9/1/2019 19:00 to 18:10 26.17 26.22 26.27 26.22 26.19 26.24
9/1/2019 18:00 to 17:10 26.25 26.21 26.06 26.00 25.84 26.16
9/1/2019 17:00 to 16:10 26.04 26.06 26.10 26.22 26.23 26.06
9/1/2019 16:00 to 15:10 25.98 26.03 25.96 25.92 26.04 26.07
9/1/2019 15:00 to 14:10 26.06 26.05 25.94 25.63 25.63 25.57
9/1/2019 14:00 to 13:10 25.38 25.26 25.33 25.72 25.95 26.00
9/1/2019 13:00 to 12:10 25.95 25.96 25.86 25.97 25.37 25.00
9/1/2019 12:00 to 11:10 24.94 24.86 25.00 25.55 25.75 25.78
9/1/2019 11:00 to 10:10 25.70 25.73 25.62 25.65 25.63 25.57
9/1/2019 10:00 to 9:10 25.36 25.16 25.34 24.85 24.63 24.87
9/1/2019 09:00 to 8:10 25.06 25.81 25.61 25.68 25.61 25.58
9/1/2019 08:00 to 7:10 25.64 25.54 25.54 25.52 25.50 25.70
9/1/2019 07:00 to 6:10 25.69 25.74 25.41 24.87 24.83 24.98
9/1/2019 06:00 to 5:10 25.43 25.12 25.55 25.73 25.81 25.74
9/1/2019 05:00 to 4:10 26.01 25.85 25.89 26.01 25.97 25.88
9/1/2019 04:00 to 3:10 25.88 25.86 25.85 25.91 25.96 25.96
9/1/2019 03:00 to 2:10 25.92 25.91 26.00 26.02 26.05 26.03
9/1/2019 02:00 to 1:10 26.07 25.91 26.02 25.88 25.85 25.70
9/1/2019 01:00 to 0:10 25.52 25.57 25.65 25.73 25.81 25.87
9/1/2019 00:00 to 23:10 25.72 25.60 25.41 25.47 25.62 25.72
8/31/2019 23:00 to 22:10 25.61 25.70 25.58 25.45 25.36 25.63
8/31/2019 22:00 to 21:10 25.52 25.22 25.39 25.34 25.27 25.22
8/31/2019 21:00 to 20:10 25.52 25.52 25.58 25.55 25.54 25.52
8/31/2019 20:00 to 19:10 25.48 25.43 25.43 25.63 25.79 25.67
8/31/2019 19:00 to 18:10 25.61 25.52 25.26 25.60 25.67 25.69
8/31/2019 18:00 to 17:10 25.75 25.83 25.72 25.62 25.69 25.58
8/31/2019 17:00 to 16:10 24.89 25.48 25.62 25.58 25.70 25.39
8/31/2019 16:00 to 15:10 24.51 24.99 25.59 25.61 25.52 25.17
8/31/2019 15:00 to 14:10 24.99 25.16 25.48 25.37 25.18 25.19
8/31/2019 14:00 to 13:10 25.22 25.16 24.97 24.70 24.79 25.03
8/31/2019 13:00 to 12:10 25.24 25.45 25.29 25.08 25.05 25.03
8/31/2019 12:00 to 11:10 25.22 25.43 25.34 25.33 25.36 25.40
8/31/2019 11:00 to 10:10 25.28 25.25 25.21 25.22 25.15 25.05
8/31/2019 10:00 to 9:10 25.14 25.09 25.02 25.00 24.99 25.12
8/31/2019 09:00 to 8:10 25.41 25.27 25.21 25.04 25.14 25.27
8/31/2019 08:00 to 7:10 25.38 25.22 25.14 25.06 25.16 25.43
8/31/2019 07:00 to 6:10 25.35 25.09 24.97 24.84 24.69 24.72
8/31/2019 06:00 to 5:10 24.94 25.50 25.27 25.25 25.27 25.24
8/31/2019 05:00 to 4:10 25.15 25.02 25.02 25.16 24.89 24.96
8/31/2019 04:00 to 3:10 24.75 24.65 24.82 25.42 25.82 25.66
8/31/2019 03:00 to 2:10 25.61 25.51 25.58 25.60 25.54 25.56
8/31/2019 02:00 to 1:10 25.45 25.41 25.45 25.43 25.50 25.70
8/31/2019 01:00 to 0:10 25.68 25.75 25.78 25.76 25.89 26.05
8/31/2019 00:00 to 23:10 25.87 25.84 25.91 25.68 25.80 25.75
8/30/2019 23:00 to 22:10 25.84 25.78 25.79 25.76 25.74 25.58
8/30/2019 22:00 to 21:10 25.68 25.74 25.78 26.00 25.94 25.90
8/30/2019 21:00 to 20:10 25.88 25.86 25.88 25.92 25.94 25.93
8/30/2019 20:00 to 19:10 25.91 25.89 25.97 25.97 25.90 25.92
8/30/2019 19:00 to 18:10 25.90 26.00 25.99 25.91 25.97 26.02
8/30/2019 18:00 to 17:10 26.18 26.09 26.04 26.06 26.00 26.01
8/30/2019 17:00 to 16:10 26.16 26.12 26.09 26.14 26.02 26.07
8/30/2019 16:00 to 15:10 26.07 25.99 26.00 26.05 26.00 26.10
8/30/2019 15:00 to 14:10 26.04 26.29 26.08 26.04 26.02 26.03
8/30/2019 14:00 to 13:10 26.03 25.97 25.83 26.02 25.83 25.81
8/30/2019 13:00 to 12:10 25.73 25.78 25.78 25.73 25.84 25.76
8/30/2019 12:00 to 11:10 25.74 25.71 25.72 25.74 25.66 25.86
8/30/2019 11:00 to 10:10 25.79 25.76 25.80 25.72 25.72 25.72
8/30/2019 10:00 to 9:10 25.50 25.42 25.40 25.57 25.78 25.55
8/30/2019 09:00 to 8:10 25.58 25.79 25.87 25.83 25.80 25.92
8/30/2019 08:00 to 7:10 25.90 25.98 25.84 25.87 25.80 25.84
8/30/2019 07:00 to 6:10 25.81 25.85 25.83 25.92 25.87 25.98
8/30/2019 06:00 to 5:10 25.91 26.01 26.04 25.99 26.06 25.95
8/30/2019 05:00 to 4:10 26.00 26.00 26.00 25.98 25.99 25.95
8/30/2019 04:00 to 3:10 26.02 25.94 25.96 25.96 26.00 26.01
8/30/2019 03:00 to 2:10 25.94 25.84 25.81 25.89 25.83 25.94
8/30/2019 02:00 to 1:10 25.82 25.79 25.77 25.93 25.84 25.87
8/30/2019 01:00 to 0:10 25.86 25.81 25.90 25.87 25.93 25.79
8/30/2019 00:00 to 23:10 25.87 25.83 25.79 25.86 25.85 25.71
8/29/2019 23:00 to 22:10 25.75 25.82 25.81 25.78 25.92 25.79
8/29/2019 22:00 to 21:10 25.89 25.76 25.74 25.86 25.92 25.96
8/29/2019 21:00 to 20:10 25.94 25.90 25.88 25.73 25.78 25.68
8/29/2019 20:00 to 19:10 25.79 25.78 25.72 25.77 25.70 25.69
8/29/2019 19:00 to 18:10 25.71 25.56 25.50 25.72 25.69 25.53
8/29/2019 18:00 to 17:10 25.65 25.72 25.75 25.62 25.66 25.71
8/29/2019 17:00 to 16:10 25.64 25.52 25.30 25.58 25.20 25.37
8/29/2019 16:00 to 15:10 24.64 24.49 25.03 24.76 25.68 25.98
8/29/2019 15:00 to 14:10 25.96 25.62 25.67 25.86 25.79 25.74
8/29/2019 14:00 to 13:10 25.71 25.73 25.54 25.54 25.56 25.54
8/29/2019 13:00 to 12:10 25.47 25.29 25.35 25.45 25.41 25.46
8/29/2019 12:00 to 11:10 25.43 25.51 25.61 25.62 25.52 25.52
8/29/2019 11:00 to 10:10 25.76 25.76 25.71 25.67 25.71 25.89
8/29/2019 10:00 to 9:10 25.75 25.75 25.78 25.68 25.77 25.57
8/29/2019 09:00 to 8:10 25.43 25.05 25.23 25.50 25.33 25.57
8/29/2019 08:00 to 7:10 25.62 25.69 25.52 25.57 25.73 25.98
8/29/2019 07:00 to 6:10 26.07 26.18 26.15 26.09 25.96 25.97
8/29/2019 06:00 to 5:10 26.04 26.16 26.06 26.04 26.04 26.12
8/29/2019 05:00 to 4:10 26.07 26.00 26.03 26.27 26.12 26.09
8/29/2019 04:00 to 3:10 26.04 26.14 26.04 26.07 26.05 26.02
8/29/2019 03:00 to 2:10 26.10 26.01 26.01 26.00 25.98 25.94
8/29/2019 02:00 to 1:10 26.01 25.91 25.83 25.96 25.84 25.92
8/29/2019 01:00 to 0:10 25.90 25.83 25.93 25.97 25.86 25.89
8/29/2019 00:00 to 23:10 25.97 25.98 25.88 25.90 25.86 25.94
8/28/2019 23:00 to 22:10 25.90 25.91 25.99 25.89 25.84 25.76
8/28/2019 22:00 to 21:10 25.89 25.77 25.64 25.55 25.75 25.84
8/28/2019 21:00 to 20:10 25.50 25.46 25.47 25.43 25.43 25.62
8/28/2019 20:00 to 19:10 25.75 25.94 25.82 25.74 25.82 25.65
8/28/2019 19:00 to 18:10 25.73 25.70 25.80 25.75 25.29 25.11
8/28/2019 18:00 to 17:10 24.99 25.23 24.96 25.26 25.74 25.76
8/28/2019 17:00 to 16:10 25.73 25.62 25.64 25.58 25.60 25.62
8/28/2019 16:00 to 15:10 25.50 25.51 25.64 25.56 25.46 25.21
8/28/2019 15:00 to 14:10 24.90 24.93 24.99 25.37 25.26 25.69
8/28/2019 14:00 to 13:10 25.58 25.57 25.40 25.53 25.60 25.28
8/28/2019 13:00 to 12:10 25.07 24.91 24.88 25.04 25.29 25.30
8/28/2019 12:00 to 11:10 24.93 24.57 25.01 24.86 24.99 25.06
8/28/2019 11:00 to 10:10 25.03 24.85 24.84 24.71 24.74 24.61
8/28/2019 10:00 to 9:10 24.80 24.71 24.68 24.79 24.63 24.49
8/28/2019 09:00 to 8:10 24.26 24.38 24.56 24.57 24.61 24.77
8/28/2019 08:00 to 7:10 24.89 24.92 25.06 25.21 25.51 25.45
8/28/2019 07:00 to 6:10 25.52 25.58 25.57 25.72 25.69 25.58
8/28/2019 06:00 to 5:10 25.71 25.73 25.74 25.72 25.72 25.88
8/28/2019 05:00 to 4:10 25.78 25.82 25.84 25.81 25.79 25.85
8/28/2019 04:00 to 3:10 25.91 25.97 25.97 25.89 25.89 25.80
8/28/2019 03:00 to 2:10 25.74 25.55 25.53 25.31 25.05 24.90
8/28/2019 02:00 to 1:10 25.03 25.05 25.33 25.27 25.27 25.43
8/28/2019 01:00 to 0:10 25.50 25.71 25.67 25.83 25.77 25.77
8/28/2019 00:00 to 23:10 25.86 25.86 26.01 25.94 26.04 26.04
8/27/2019 23:00 to 22:10 25.99 25.97 25.90 25.87 25.98 26.19
8/27/2019 22:00 to 21:10 26.04 26.08 26.19 26.18 26.09 26.13
8/27/2019 21:00 to 20:10 26.03 25.77 25.58 25.44 25.80 26.16
8/27/2019 20:00 to 19:10 26.13 25.40 25.70 25.93 26.11 26.11
8/27/2019 19:00 to 18:10 26.17 26.05 25.97 26.01 26.05 26.08
8/27/2019 18:00 to 17:10 25.97 26.00 26.03 26.10 25.90 25.90
8/27/2019 17:00 to 16:10 25.71 25.78 25.80 25.76 25.90 25.71
8/27/2019 16:00 to 15:10 25.71 25.67 25.69 25.57 25.41 25.12
8/27/2019 15:00 to 14:10 25.54 25.42 25.32 25.12 24.85 24.90
8/27/2019 14:00 to 13:10 24.96 25.33 24.95 25.29 25.36 25.06
8/27/2019 13:00 to 12:10 25.33 25.46 25.52 25.56 25.44 25.40
8/27/2019 12:00 to 11:10 25.12 25.40 25.16 25.37 25.11 25.04
8/27/2019 11:00 to 10:10 25.11 25.70 25.70 25.65 25.57 25.64
8/27/2019 10:00 to 9:10 25.67 25.72 25.54 25.57 25.49 25.52
8/27/2019 09:00 to 8:10 25.73 25.68 25.58 25.29 25.51 25.55
8/27/2019 08:00 to 7:10 25.84 25.83 25.85 25.75 25.73 25.61
8/27/2019 07:00 to 6:10 25.59 25.64 25.50 25.48 25.71 25.71
8/27/2019 06:00 to 5:10 25.77 25.87 25.71 25.68 25.52 25.54
8/27/2019 05:00 to 4:10 25.54 25.49 25.61 25.66 25.48 25.52
8/27/2019 04:00 to 3:10 25.44 25.34 25.07 24.95 24.98 24.89
8/27/2019 03:00 to 2:10 24.89 25.09 25.24 25.21 25.25 25.03
8/27/2019 02:00 to 1:10 24.79 24.66 24.80 24.86 24.98 24.76
8/27/2019 01:00 to 0:10 24.70 24.91 24.93 24.87 25.08 25.29